This is the latest recevied weather packets stored in our database for station/object IZ5MJO-13. If no packets are shown the sender has not sent any weather packets the latest 10 day(s).
| Time | Temp. | Humidity | Pressure | Rain* | Wind** | Luminosity | Snow |
|---|---|---|---|---|---|---|---|
| 1787516388 | 23.33° C | 46% | 1007.4 hPa | - | - | - | - |
| 1787515488 | 23.33° C | 45% | 1007.3 hPa | - | - | - | - |
| 1787514588 | 23.33° C | 46% | 1007.4 hPa | - | - | - | - |
| 1787513688 | 23.33° C | 45% | 1007.3 hPa | - | - | - | - |
| 1787512788 | 23.89° C | 45% | 1007 hPa | - | - | - | - |
| 1787511887 | 23.89° C | 42% | 1006.7 hPa | - | - | - | - |
| 1787510987 | 24.44° C | 40% | 1006.6 hPa | - | - | - | - |
| 1787510087 | 25° C | 36% | 1006.5 hPa | - | - | - | - |
| 1787509192 | 26.11° C | 33% | 1006.5 hPa | - | - | - | - |
| 1787508291 | 27.22° C | 31% | 1006.5 hPa | - | - | - | - |
| 1787507391 | 28.33° C | 28% | 1006.3 hPa | - | - | - | - |
| 1787506491 | 31.11° C | 26% | 1006.3 hPa | - | - | - | - |
| 1787505590 | 32.22° C | 25% | 1006.3 hPa | - | - | - | - |
| 1787504690 | 32.78° C | 25% | 1006.3 hPa | - | - | - | - |
| 1787503790 | 33.33° C | 24% | 1006.4 hPa | - | - | - | - |
| 1787502890 | 33.89° C | 24% | 1006.5 hPa | - | - | - | - |
| 1787501990 | 33.89° C | 24% | 1006.5 hPa | - | - | - | - |
| 1787501090 | 35° C | 24% | 1006.5 hPa | - | - | - | - |
| 1787500189 | 35.56° C | 23% | 1006.6 hPa | - | - | - | - |
| 1787499289 | 36.11° C | 23% | 1006.5 hPa | - | - | - | - |
| 1787498388 | 36.67° C | 26% | 1006.7 hPa | - | - | - | - |
| 1787497488 | 36.67° C | 24% | 1006.6 hPa | - | - | - | - |
| 1787496588 | 37.22° C | 23% | 1006.7 hPa | - | - | - | - |
| 1787495688 | 36.67° C | 23% | 1006.6 hPa | - | - | - | - |
| 1787494787 | 37.78° C | 23% | 1006.8 hPa | - | - | - | - |
* Rain since midnight (hover to see other rain measurements)
** Current wind speed in m/s (hover to see current wind gust speed)